createdAt,value
2018-12-25T00:00:56.592Z,9.80
2018-12-25T00:01:56.561Z,11.30
2018-12-25T00:02:56.530Z,13.90
2018-12-25T00:03:56.495Z,12.40
2018-12-25T00:04:57.617Z,8.20
2018-12-25T00:05:56.437Z,10.40
2018-12-25T00:06:56.402Z,9.00
2018-12-25T00:07:56.369Z,12.60
2018-12-25T00:08:56.341Z,14.20
2018-12-25T00:09:56.306Z,10.80
2018-12-25T00:10:56.274Z,13.50
2018-12-25T00:11:56.241Z,12.10
2018-12-25T00:12:56.219Z,10.90
2018-12-25T00:13:56.178Z,11.40
2018-12-25T00:14:56.146Z,8.90
2018-12-25T00:15:56.116Z,14.90
2018-12-25T00:16:56.081Z,14.70
2018-12-25T00:17:56.252Z,7.30
2018-12-25T00:18:56.222Z,9.20
2018-12-25T00:19:56.193Z,9.20
2018-12-25T00:20:55.975Z,10.50
2018-12-25T00:21:55.923Z,13.40
2018-12-25T00:22:55.893Z,8.90
2018-12-25T00:23:55.858Z,9.00
2018-12-25T00:24:55.826Z,13.80
2018-12-25T00:25:55.795Z,12.60
2018-12-25T00:26:55.764Z,11.30
2018-12-25T00:27:55.731Z,14.10
2018-12-25T00:28:55.699Z,14.70
2018-12-25T00:29:55.667Z,12.30
2018-12-25T00:30:55.641Z,8.70
2018-12-25T00:31:55.603Z,10.10
2018-12-25T00:32:55.573Z,9.90
2018-12-25T00:33:55.541Z,9.60
2018-12-25T00:34:55.511Z,8.40
2018-12-25T00:35:55.477Z,10.70
2018-12-25T00:36:55.446Z,12.80
2018-12-25T00:37:55.413Z,12.90
2018-12-25T00:38:55.387Z,8.80
2018-12-25T00:39:55.354Z,7.50
2018-12-25T00:40:55.318Z,11.80
2018-12-25T00:41:55.291Z,10.70
2018-12-25T00:42:55.273Z,7.60
2018-12-25T00:43:55.221Z,7.90
2018-12-25T00:44:55.191Z,6.20
2018-12-25T00:45:55.163Z,12.50
2018-12-25T00:46:55.127Z,6.70
2018-12-25T00:47:55.095Z,7.20
2018-12-25T00:48:55.062Z,10.80
2018-12-25T00:49:55.034Z,7.50
2018-12-25T00:50:55.002Z,10.80
2018-12-25T00:51:54.968Z,11.30
2018-12-25T00:52:54.940Z,12.90
2018-12-25T00:53:54.904Z,7.40
2018-12-25T00:54:54.872Z,11.20
2018-12-25T00:55:54.842Z,7.20
2018-12-25T00:56:54.810Z,12.30
2018-12-25T00:57:54.777Z,6.50
2018-12-25T00:58:54.747Z,6.40
2018-12-25T00:59:54.713Z,9.50
2018-12-25T01:00:54.684Z,8.60
2018-12-25T01:01:54.648Z,7.50
2018-12-25T01:02:54.619Z,7.20
2018-12-25T01:03:54.585Z,8.90
2018-12-25T01:04:54.561Z,7.20
2018-12-25T01:05:54.522Z,10.70
2018-12-25T01:06:54.488Z,11.10
2018-12-25T01:07:54.559Z,8.10
2018-12-25T01:08:54.425Z,7.90
2018-12-25T01:09:54.394Z,7.50
2018-12-25T01:10:54.365Z,10.60
2018-12-25T01:11:54.328Z,10.10
2018-12-25T01:12:54.303Z,6.50
2018-12-25T01:13:54.268Z,7.40
2018-12-25T01:14:54.497Z,9.80
2018-12-25T01:15:54.202Z,5.50
2018-12-25T01:16:54.169Z,8.90
2018-12-25T01:17:54.139Z,7.50
2018-12-25T01:18:54.106Z,9.30
2018-12-25T01:19:54.073Z,9.60
2018-12-25T01:20:54.042Z,8.60
2018-12-25T01:21:54.009Z,10.00
2018-12-25T01:22:53.982Z,5.30
2018-12-25T01:23:53.945Z,8.50
2018-12-25T01:24:53.913Z,8.40
2018-12-25T01:25:53.881Z,8.40
2018-12-25T01:26:53.851Z,10.70
2018-12-25T01:27:53.818Z,8.30
2018-12-25T01:28:53.785Z,4.30
2018-12-25T01:29:53.752Z,4.90
2018-12-25T01:30:53.720Z,9.50
2018-12-25T01:31:53.689Z,7.50
2018-12-25T01:32:53.655Z,8.30
2018-12-25T01:33:53.625Z,7.10
2018-12-25T01:34:53.593Z,4.60
2018-12-25T01:35:53.559Z,7.90
2018-12-25T01:36:53.529Z,6.70
2018-12-25T01:37:53.495Z,8.00
2018-12-25T01:38:53.464Z,7.30
2018-12-25T01:39:53.431Z,5.80
2018-12-25T01:40:53.399Z,5.50
2018-12-25T01:41:53.367Z,7.00
2018-12-25T01:42:53.335Z,4.90
2018-12-25T01:43:53.302Z,8.20
2018-12-25T01:44:53.316Z,10.00
2018-12-25T01:45:53.238Z,12.10
2018-12-25T01:46:53.206Z,4.40
2018-12-25T01:47:53.175Z,8.50
2018-12-25T01:48:53.141Z,9.20
2018-12-25T01:49:53.114Z,8.70
2018-12-25T01:50:53.078Z,7.20
2018-12-25T01:51:53.048Z,6.00
2018-12-25T01:52:53.014Z,5.50
2018-12-25T01:53:52.981Z,5.30
2018-12-25T01:54:52.947Z,7.50
2018-12-25T01:55:53.416Z,4.20
2018-12-25T01:56:52.883Z,9.60
2018-12-25T01:57:52.852Z,7.50
2018-12-25T01:58:52.819Z,8.50
2018-12-25T01:59:52.785Z,9.10
2018-12-25T02:00:52.772Z,6.90
2018-12-25T02:01:52.732Z,7.20
2018-12-25T02:02:52.689Z,5.10
2018-12-25T02:03:52.658Z,3.20
2018-12-25T02:04:52.625Z,5.60
2018-12-25T02:05:52.594Z,6.40
2018-12-25T02:06:52.562Z,8.60
2018-12-25T02:07:52.528Z,6.30
2018-12-25T02:08:52.496Z,10.60
2018-12-25T02:09:52.468Z,8.00
2018-12-25T02:10:52.433Z,7.70
2018-12-25T02:11:52.401Z,7.20
2018-12-25T02:12:52.367Z,7.70
2018-12-25T02:13:52.335Z,10.00
2018-12-25T02:14:52.302Z,7.80
2018-12-25T02:15:52.271Z,6.40
2018-12-25T02:16:52.239Z,8.30
2018-12-25T02:17:52.206Z,6.30
2018-12-25T02:18:52.181Z,8.00
2018-12-25T02:19:52.160Z,4.30
2018-12-25T02:20:52.109Z,5.70
2018-12-25T02:21:52.076Z,7.80
2018-12-25T02:22:52.045Z,7.20
2018-12-25T02:23:52.012Z,8.30
2018-12-25T02:24:51.980Z,5.70
2018-12-25T02:25:51.948Z,6.50
2018-12-25T02:26:51.916Z,10.70
2018-12-25T02:27:51.887Z,4.90
2018-12-25T02:28:51.855Z,8.30
2018-12-25T02:29:51.844Z,7.40
2018-12-25T02:30:51.792Z,5.90
2018-12-25T02:31:51.758Z,6.00
2018-12-25T02:32:51.721Z,6.30
2018-12-25T02:33:51.696Z,8.70
2018-12-25T02:34:51.660Z,7.10
2018-12-25T02:35:51.624Z,5.40
2018-12-25T02:36:51.594Z,5.40
2018-12-25T02:37:51.562Z,6.90
2018-12-25T02:38:51.529Z,5.20
2018-12-25T02:39:51.497Z,8.40
2018-12-25T02:40:51.463Z,7.20
2018-12-25T02:41:51.432Z,4.90
2018-12-25T02:42:51.553Z,3.60
2018-12-25T02:43:51.370Z,5.10
2018-12-25T02:44:51.338Z,8.30
2018-12-25T02:45:51.303Z,6.10
2018-12-25T02:46:51.275Z,6.20
2018-12-25T02:47:51.244Z,7.00
2018-12-25T02:48:51.213Z,6.80
2018-12-25T02:49:51.176Z,5.30
2018-12-25T02:50:51.143Z,5.60
2018-12-25T02:51:51.125Z,7.80
2018-12-25T02:52:51.080Z,6.90
2018-12-25T02:53:51.053Z,5.40
2018-12-25T02:54:51.014Z,9.30
2018-12-25T02:55:50.981Z,5.30
2018-12-25T02:56:50.949Z,6.30
2018-12-25T02:57:50.925Z,5.90
2018-12-25T02:58:50.887Z,4.70
2018-12-25T02:59:50.854Z,8.60
2018-12-25T03:00:50.824Z,5.80
2018-12-25T03:01:50.789Z,6.50
2018-12-25T03:02:50.756Z,6.60
2018-12-25T03:03:50.726Z,4.70
2018-12-25T03:04:50.704Z,6.30
2018-12-25T03:05:50.812Z,6.40
2018-12-25T03:06:50.634Z,7.90
2018-12-25T03:07:50.596Z,5.80
2018-12-25T03:08:50.564Z,4.40
2018-12-25T03:09:50.532Z,5.20
2018-12-25T03:10:50.500Z,3.30
2018-12-25T03:11:50.468Z,7.90
2018-12-25T03:12:50.436Z,5.60
2018-12-25T03:13:50.407Z,4.10
2018-12-25T03:14:50.370Z,5.10
2018-12-25T03:15:50.341Z,6.70
2018-12-25T03:16:50.307Z,8.30
2018-12-25T03:17:50.428Z,8.00
2018-12-25T03:18:50.253Z,5.20
2018-12-25T03:19:59.592Z,5.40
2018-12-25T03:20:50.180Z,7.20
2018-12-25T03:21:50.148Z,6.80
2018-12-25T03:22:50.144Z,5.90
2018-12-25T03:23:50.083Z,8.30
2018-12-25T03:24:50.054Z,8.70
2018-12-25T03:25:50.023Z,6.80
2018-12-25T03:26:49.987Z,5.80
2018-12-25T03:27:49.954Z,5.40
2018-12-25T03:28:49.924Z,5.90
2018-12-25T03:29:49.892Z,7.00
2018-12-25T03:30:49.859Z,3.60
2018-12-25T03:31:49.828Z,5.50
2018-12-25T03:32:49.807Z,3.90
2018-12-25T03:33:49.765Z,6.50
2018-12-25T03:34:49.730Z,7.40
2018-12-25T03:35:49.696Z,5.60
2018-12-25T03:36:49.666Z,8.10
2018-12-25T03:37:49.634Z,7.30
2018-12-25T03:38:49.601Z,4.60
2018-12-25T03:39:49.570Z,6.10
2018-12-25T03:40:49.557Z,5.70
2018-12-25T03:41:49.507Z,6.10
2018-12-25T03:42:49.475Z,8.10
2018-12-25T03:43:49.443Z,6.00
2018-12-25T03:44:49.412Z,7.30
2018-12-25T03:45:49.381Z,7.20
2018-12-25T03:46:49.348Z,7.20
2018-12-25T03:47:49.315Z,5.40
2018-12-25T03:48:49.285Z,8.90
2018-12-25T03:49:49.254Z,9.50
2018-12-25T03:50:49.230Z,6.20
2018-12-25T03:51:49.187Z,7.00
2018-12-25T03:52:49.157Z,5.50
2018-12-25T03:53:49.124Z,6.50
2018-12-25T03:54:49.096Z,5.50
2018-12-25T03:55:49.060Z,4.60
2018-12-25T03:56:49.029Z,6.60
2018-12-25T03:57:48.999Z,5.70
2018-12-25T03:58:48.976Z,8.70
2018-12-25T03:59:48.930Z,6.10
2018-12-25T04:00:48.899Z,7.90
2018-12-25T04:01:48.869Z,7.70
2018-12-25T04:02:48.834Z,8.00
2018-12-25T04:03:48.806Z,9.50
2018-12-25T04:04:48.770Z,8.20
2018-12-25T04:05:48.749Z,5.40
2018-12-25T04:06:48.708Z,7.80
2018-12-25T04:07:48.689Z,7.30
2018-12-25T04:08:48.646Z,5.70
2018-12-25T04:09:48.861Z,7.80
2018-12-25T04:10:48.678Z,7.20
2018-12-25T04:11:48.550Z,6.40
2018-12-25T04:12:48.517Z,7.80
2018-12-25T04:13:48.489Z,6.30
2018-12-25T04:14:48.455Z,7.30
2018-12-25T04:15:48.420Z,7.50
2018-12-25T04:16:48.390Z,6.30
2018-12-25T04:17:48.359Z,7.30
2018-12-25T04:18:48.332Z,7.50
2018-12-25T04:19:48.294Z,6.10
2018-12-25T04:20:48.267Z,5.20
2018-12-25T04:21:48.233Z,6.70
2018-12-25T04:22:48.200Z,4.90
2018-12-25T04:23:48.171Z,8.50
2018-12-25T04:24:48.135Z,10.30
2018-12-25T04:25:48.107Z,5.30
2018-12-25T04:26:48.074Z,7.70
2018-12-25T04:27:48.038Z,6.40
2018-12-25T04:28:48.007Z,5.30
2018-12-25T04:29:47.978Z,7.80
2018-12-25T04:30:47.948Z,6.20
2018-12-25T04:31:47.912Z,6.00
2018-12-25T04:32:47.878Z,8.10
2018-12-25T04:33:47.854Z,8.90
2018-12-25T04:34:47.817Z,4.80
2018-12-25T04:35:47.783Z,3.80
2018-12-25T04:36:47.753Z,6.40
2018-12-25T04:37:47.725Z,7.30
2018-12-25T04:38:47.688Z,5.10
2018-12-25T04:39:47.660Z,10.10
2018-12-25T04:40:47.625Z,9.20
2018-12-25T04:41:47.592Z,6.40
2018-12-25T04:42:47.561Z,4.50
2018-12-25T04:43:47.540Z,4.90
2018-12-25T04:44:47.496Z,6.10
2018-12-25T04:45:47.463Z,9.40
2018-12-25T04:46:47.432Z,6.30
2018-12-25T04:47:47.406Z,3.50
2018-12-25T04:48:47.368Z,6.00
2018-12-25T04:49:47.342Z,10.70
2018-12-25T04:50:47.314Z,5.10
2018-12-25T04:51:47.274Z,7.20
2018-12-25T04:52:47.244Z,5.50
2018-12-25T04:53:47.211Z,6.40
2018-12-25T04:54:47.185Z,4.30
2018-12-25T04:55:47.144Z,4.60
2018-12-25T04:56:47.113Z,6.40
2018-12-25T04:57:47.084Z,4.90
2018-12-25T04:58:47.055Z,9.10
2018-12-25T04:59:47.015Z,7.60
2018-12-25T05:00:46.987Z,7.50
2018-12-25T05:01:46.953Z,6.90
2018-12-25T05:02:46.920Z,6.30
2018-12-25T05:03:46.890Z,6.10
2018-12-25T05:04:46.856Z,8.30
2018-12-25T05:05:46.826Z,5.60
2018-12-25T05:06:46.793Z,4.90
2018-12-25T05:07:46.759Z,7.50
2018-12-25T05:08:46.732Z,6.70
2018-12-25T05:09:46.697Z,6.20
2018-12-25T05:10:46.666Z,9.80
2018-12-25T05:11:46.633Z,6.20
2018-12-25T05:12:46.601Z,7.70
2018-12-25T05:13:46.569Z,5.90
2018-12-25T05:14:46.539Z,7.10
2018-12-25T05:15:46.504Z,10.80
2018-12-25T05:16:46.478Z,5.40
2018-12-25T05:17:46.441Z,5.90
2018-12-25T05:18:46.410Z,7.20
2018-12-25T05:19:46.716Z,7.40
2018-12-25T05:20:46.344Z,8.70
2018-12-25T05:21:46.314Z,6.90
2018-12-25T05:22:46.281Z,7.00
2018-12-25T05:23:46.249Z,7.60
2018-12-25T05:24:46.218Z,7.20
2018-12-25T05:25:46.186Z,7.60
2018-12-25T05:26:46.154Z,7.70
2018-12-25T05:27:46.121Z,7.10
2018-12-25T05:28:46.090Z,6.20
2018-12-25T05:29:46.059Z,7.60
2018-12-25T05:30:46.027Z,8.60
2018-12-25T05:31:45.994Z,8.30
2018-12-25T05:32:45.963Z,7.90
2018-12-25T05:33:45.933Z,5.80
2018-12-25T05:34:45.901Z,5.50
2018-12-25T05:35:45.872Z,6.70
2018-12-25T05:36:45.836Z,7.40
2018-12-25T05:37:46.304Z,6.00
2018-12-25T05:38:45.771Z,6.30
2018-12-25T05:39:45.742Z,6.40
2018-12-25T05:40:45.708Z,9.20
2018-12-25T05:41:45.676Z,7.50
2018-12-25T05:42:45.646Z,13.30
2018-12-25T05:43:45.762Z,6.40
2018-12-25T05:44:45.582Z,6.20
2018-12-25T05:45:45.558Z,8.60
2018-12-25T05:46:45.517Z,7.40
2018-12-25T05:47:45.485Z,6.30
2018-12-25T05:48:45.455Z,3.80
2018-12-25T05:49:45.423Z,8.50
2018-12-25T05:50:46.798Z,8.80
2018-12-25T05:51:45.356Z,5.60
2018-12-25T05:52:45.326Z,5.00
2018-12-25T05:53:45.296Z,8.10
2018-12-25T05:54:45.269Z,6.30
2018-12-25T05:55:45.235Z,8.00
2018-12-25T05:56:45.205Z,5.40
2018-12-25T05:57:45.168Z,8.00
2018-12-25T05:58:45.136Z,8.30
2018-12-25T05:59:45.112Z,7.30
2018-12-25T06:00:45.225Z,5.70
2018-12-25T06:01:45.039Z,9.40
2018-12-25T06:02:45.009Z,7.50
2018-12-25T06:03:44.977Z,8.70
2018-12-25T06:04:44.944Z,6.80
2018-12-25T06:05:44.914Z,6.40
2018-12-25T06:06:44.882Z,8.80
2018-12-25T06:07:44.850Z,7.00
2018-12-25T06:08:44.821Z,9.90
2018-12-25T06:09:44.787Z,7.40
2018-12-25T06:10:44.755Z,8.10
2018-12-25T06:11:44.723Z,5.90
2018-12-25T06:12:44.691Z,8.00
2018-12-25T06:13:44.660Z,7.90
2018-12-25T06:14:44.629Z,5.30
2018-12-25T06:15:44.595Z,7.30
2018-12-25T06:16:44.565Z,5.90
2018-12-25T06:17:44.533Z,7.10
2018-12-25T06:18:44.501Z,7.80
2018-12-25T06:19:44.469Z,8.80
2018-12-25T06:20:44.437Z,7.50
2018-12-25T06:21:44.407Z,5.10
2018-12-25T06:22:44.375Z,6.90
2018-12-25T06:23:44.342Z,8.90
2018-12-25T06:24:44.311Z,6.90
2018-12-25T06:25:44.279Z,11.60
2018-12-25T06:26:44.247Z,7.10
2018-12-25T06:27:44.217Z,7.90
2018-12-25T06:28:44.187Z,9.00
2018-12-25T06:29:44.156Z,8.40
2018-12-25T06:30:44.123Z,11.60
2018-12-25T06:31:44.088Z,10.60
2018-12-25T06:32:44.058Z,9.00
2018-12-25T06:33:44.025Z,9.20
2018-12-25T06:34:43.994Z,10.50
2018-12-25T06:35:44.061Z,10.20
2018-12-25T06:36:43.928Z,7.00
2018-12-25T06:37:43.899Z,8.30
2018-12-25T06:38:43.869Z,7.20
2018-12-25T06:39:43.834Z,10.70
2018-12-25T06:40:43.804Z,10.50
2018-12-25T06:41:43.771Z,9.80
2018-12-25T06:42:43.739Z,8.80
2018-12-25T06:43:43.706Z,9.30
2018-12-25T06:44:43.674Z,11.00
2018-12-25T06:45:43.643Z,9.40
2018-12-25T06:46:43.612Z,12.90
2018-12-25T06:47:43.577Z,7.60
2018-12-25T06:48:43.547Z,9.20
2018-12-25T06:49:43.516Z,13.60
2018-12-25T06:50:43.491Z,8.80
2018-12-25T06:51:43.454Z,11.20
2018-12-25T06:52:43.572Z,7.20
2018-12-25T06:53:43.387Z,6.10
2018-12-25T06:54:43.359Z,11.80
2018-12-25T06:55:43.324Z,11.40
2018-12-25T06:56:43.291Z,10.50
2018-12-25T06:57:43.257Z,6.70
2018-12-25T06:58:43.230Z,12.50
2018-12-25T06:59:43.194Z,9.20
2018-12-25T07:00:43.162Z,8.50
2018-12-25T07:01:43.132Z,10.30
2018-12-25T07:02:43.105Z,7.40
2018-12-25T07:03:43.066Z,5.60
2018-12-25T07:04:43.036Z,7.80
2018-12-25T07:05:43.002Z,6.20
2018-12-25T07:06:42.971Z,7.50
2018-12-25T07:07:42.940Z,13.30
2018-12-25T07:08:42.907Z,9.10
2018-12-25T07:09:42.877Z,13.40
2018-12-25T07:10:42.845Z,9.30
2018-12-25T07:11:42.818Z,6.40
2018-12-25T07:12:42.780Z,11.10
2018-12-25T07:13:42.756Z,15.50
2018-12-25T07:14:42.715Z,7.30
2018-12-25T07:15:42.685Z,8.90
2018-12-25T07:16:42.655Z,15.40
2018-12-25T07:17:42.624Z,6.30
2018-12-25T07:18:42.589Z,7.50
2018-12-25T07:19:42.556Z,9.50
2018-12-25T07:20:42.529Z,7.20
2018-12-25T07:21:42.492Z,7.40
2018-12-25T07:22:42.463Z,8.90
2018-12-25T07:23:42.429Z,10.10
2018-12-25T07:24:42.401Z,7.80
2018-12-25T07:25:42.369Z,8.40
2018-12-25T07:26:42.335Z,6.90
2018-12-25T07:27:42.302Z,8.20
2018-12-25T07:28:42.270Z,8.60
2018-12-25T07:29:42.240Z,7.30
2018-12-25T07:30:42.207Z,5.20
2018-12-25T07:31:42.174Z,13.60
2018-12-25T07:32:42.145Z,5.90
2018-12-25T07:33:42.112Z,10.60
2018-12-25T07:34:42.081Z,10.70
2018-12-25T07:35:42.049Z,7.60
2018-12-25T07:36:42.018Z,9.20
2018-12-25T07:37:41.988Z,14.80
2018-12-25T07:38:41.956Z,7.60
2018-12-25T07:39:41.923Z,8.20
2018-12-25T07:40:41.906Z,8.60
2018-12-25T07:41:41.874Z,11.10
2018-12-25T07:42:41.827Z,6.80
2018-12-25T07:43:41.796Z,8.70
2018-12-25T07:44:41.766Z,11.80
2018-12-25T07:45:41.733Z,7.00
2018-12-25T07:46:41.702Z,7.00
2018-12-25T07:47:41.669Z,5.30
2018-12-25T07:48:41.639Z,9.40
2018-12-25T07:49:41.608Z,7.60
2018-12-25T07:50:41.576Z,9.30
2018-12-25T07:51:41.543Z,8.90
2018-12-25T07:52:41.512Z,11.60
2018-12-25T07:53:41.481Z,8.30
2018-12-25T07:54:41.454Z,11.80
2018-12-25T07:55:41.416Z,6.00
2018-12-25T07:56:41.392Z,8.10
2018-12-25T07:57:41.360Z,8.20
2018-12-25T07:58:41.325Z,6.40
2018-12-25T07:59:41.291Z,7.70
2018-12-25T08:00:41.259Z,7.80
2018-12-25T08:01:41.229Z,9.60
2018-12-25T08:02:41.197Z,9.80
2018-12-25T08:03:41.164Z,7.80
2018-12-25T08:04:41.142Z,6.40
2018-12-25T08:05:41.103Z,11.70
2018-12-25T08:06:41.072Z,7.00
2018-12-25T08:07:41.039Z,12.00
2018-12-25T08:08:41.008Z,7.90
2018-12-25T08:09:40.976Z,7.60
2018-12-25T08:10:40.945Z,8.80
2018-12-25T08:11:40.913Z,6.30
2018-12-25T08:12:40.883Z,8.10
2018-12-25T08:13:40.849Z,9.40
2018-12-25T08:14:40.820Z,11.40
2018-12-25T08:15:40.789Z,6.40
2018-12-25T08:16:40.756Z,6.00
2018-12-25T08:17:40.725Z,12.00
2018-12-25T08:18:40.693Z,9.40
2018-12-25T08:19:40.660Z,10.90
2018-12-25T08:20:40.632Z,8.90
2018-12-25T08:21:40.598Z,6.40
2018-12-25T08:22:40.571Z,6.90
2018-12-25T08:23:40.536Z,7.60
2018-12-25T08:24:40.503Z,12.60
2018-12-25T08:25:40.476Z,8.20
2018-12-25T08:26:40.443Z,12.70
2018-12-25T08:27:40.410Z,10.60
2018-12-25T08:28:40.380Z,7.90
2018-12-25T08:29:40.351Z,4.40
2018-12-25T08:30:40.318Z,10.50
2018-12-25T08:31:40.289Z,9.80
2018-12-25T08:32:40.256Z,13.20
2018-12-25T08:33:40.222Z,8.10
2018-12-25T08:34:40.192Z,6.30
2018-12-25T08:35:40.234Z,11.50
2018-12-25T08:36:40.130Z,9.80
2018-12-25T08:37:40.100Z,7.80
2018-12-25T08:38:40.068Z,8.70
2018-12-25T08:39:40.034Z,7.80
2018-12-25T08:40:40.005Z,7.10
2018-12-25T08:41:39.973Z,8.50
2018-12-25T08:42:39.942Z,9.20
2018-12-25T08:43:39.914Z,7.60
2018-12-25T08:44:39.879Z,7.10
2018-12-25T08:45:39.850Z,8.40
2018-12-25T08:46:39.819Z,9.40
2018-12-25T08:47:39.787Z,7.80
2018-12-25T08:48:39.757Z,9.90
2018-12-25T08:49:40.082Z,9.30
2018-12-25T08:50:39.696Z,12.30
2018-12-25T08:51:39.664Z,9.70
2018-12-25T08:52:39.634Z,11.10
2018-12-25T08:53:39.601Z,9.00
2018-12-25T08:54:39.636Z,6.20
2018-12-25T08:55:39.558Z,9.80
2018-12-25T08:56:39.511Z,7.70
2018-12-25T08:57:39.478Z,8.80
2018-12-25T08:58:39.448Z,12.80
2018-12-25T08:59:39.417Z,13.60
2018-12-25T09:00:39.385Z,8.80
2018-12-25T09:01:39.357Z,10.40
2018-12-25T09:02:39.325Z,8.60
2018-12-25T09:03:39.295Z,8.00
2018-12-25T09:04:39.264Z,9.80
2018-12-25T09:05:39.231Z,10.20
2018-12-25T09:06:39.201Z,10.40
2018-12-25T09:07:39.170Z,8.60
2018-12-25T09:08:39.140Z,12.30
2018-12-25T09:09:39.114Z,10.90
2018-12-25T09:10:39.079Z,8.70
2018-12-25T09:11:39.048Z,10.20
2018-12-25T09:12:39.017Z,8.40
2018-12-25T09:13:38.988Z,7.20
2018-12-25T09:14:38.956Z,9.90
2018-12-25T09:15:38.924Z,8.80
2018-12-25T09:16:38.896Z,10.30
2018-12-25T09:17:38.867Z,9.00
2018-12-25T09:18:38.834Z,9.10
2018-12-25T09:19:38.800Z,10.70
2018-12-25T09:20:38.787Z,7.90
2018-12-25T09:21:46.117Z,7.50
2018-12-25T09:22:38.711Z,8.70
2018-12-25T09:23:38.679Z,9.10
2018-12-25T09:24:38.647Z,7.50
2018-12-25T09:25:38.671Z,9.40
2018-12-25T09:26:38.588Z,10.10
2018-12-25T09:27:38.557Z,10.60
2018-12-25T09:28:38.529Z,10.20
2018-12-25T09:29:38.495Z,10.10
2018-12-25T09:30:38.465Z,7.40
2018-12-25T09:31:38.436Z,11.50
2018-12-25T09:32:38.405Z,7.40
2018-12-25T09:33:38.374Z,9.80
2018-12-25T09:34:38.347Z,6.70
2018-12-25T09:35:38.315Z,6.70
2018-12-25T09:36:38.284Z,7.80
2018-12-25T09:37:38.253Z,11.00
2018-12-25T09:38:38.222Z,10.70
2018-12-25T09:39:38.190Z,8.20
2018-12-25T09:40:38.160Z,9.10
2018-12-25T09:41:38.131Z,8.30
2018-12-25T09:42:38.098Z,6.30
2018-12-25T09:43:38.070Z,10.50
2018-12-25T09:44:38.037Z,7.90
2018-12-25T09:45:38.010Z,6.20
2018-12-25T09:46:37.978Z,12.30
2018-12-25T09:47:37.950Z,9.30
2018-12-25T09:48:37.917Z,8.40
2018-12-25T09:49:37.885Z,10.40
2018-12-25T09:50:37.856Z,12.20
2018-12-25T09:51:37.825Z,9.50
2018-12-25T09:52:37.793Z,6.50
2018-12-25T09:53:37.765Z,9.90
2018-12-25T09:54:37.735Z,10.90
2018-12-25T09:55:37.718Z,9.00
2018-12-25T09:56:37.673Z,11.60
2018-12-25T09:57:37.643Z,8.70
2018-12-25T09:58:37.613Z,7.60
2018-12-25T09:59:37.585Z,13.70
2018-12-25T10:00:38.329Z,5.90
2018-12-25T10:01:37.524Z,13.90
2018-12-25T10:02:37.492Z,6.40
2018-12-25T10:03:37.460Z,7.00
2018-12-25T10:04:37.430Z,8.50
2018-12-25T10:05:37.399Z,7.10
2018-12-25T10:06:37.370Z,5.40
2018-12-25T10:07:37.339Z,8.60
2018-12-25T10:08:37.311Z,6.80
2018-12-25T10:09:37.285Z,6.80
2018-12-25T10:10:37.249Z,7.70
2018-12-25T10:11:44.336Z,9.70
2018-12-25T10:12:37.191Z,11.30
2018-12-25T10:13:37.159Z,10.50
2018-12-25T10:14:37.127Z,12.60
2018-12-25T10:15:37.101Z,9.00
2018-12-25T10:16:37.067Z,8.30
2018-12-25T10:17:37.037Z,12.20
2018-12-25T10:18:37.007Z,5.70
2018-12-25T10:19:36.978Z,9.00
2018-12-25T10:20:36.946Z,9.00
2018-12-25T10:21:36.915Z,8.30
2018-12-25T10:22:36.886Z,8.20
2018-12-25T10:23:36.905Z,7.30
2018-12-25T10:24:36.826Z,11.00
2018-12-25T10:25:36.816Z,9.20
2018-12-25T10:26:36.768Z,11.10
2018-12-25T10:27:36.734Z,10.30
2018-12-25T10:28:36.704Z,10.70
2018-12-25T10:29:36.675Z,9.70
2018-12-25T10:30:36.644Z,15.00
2018-12-25T10:31:36.630Z,8.40
2018-12-25T10:32:36.584Z,6.10
2018-12-25T10:33:36.555Z,9.00
2018-12-25T10:34:36.525Z,11.70
2018-12-25T10:35:36.495Z,12.50
2018-12-25T10:36:36.463Z,8.70
2018-12-25T10:37:36.434Z,11.70
2018-12-25T10:38:36.403Z,10.00
2018-12-25T10:39:36.374Z,13.00
2018-12-25T10:40:36.350Z,8.00
2018-12-25T10:41:36.315Z,11.10
2018-12-25T10:42:36.285Z,11.30
2018-12-25T10:43:39.078Z,9.40
2018-12-25T10:44:36.231Z,9.60
2018-12-25T10:45:36.197Z,12.20
2018-12-25T10:46:36.373Z,12.80
2018-12-25T10:47:36.345Z,13.00
2018-12-25T10:48:36.310Z,12.50
2018-12-25T10:49:36.076Z,9.30
2018-12-25T10:50:36.044Z,9.60
2018-12-25T10:51:36.017Z,11.00
2018-12-25T10:52:35.984Z,10.80
2018-12-25T10:53:35.958Z,13.60
2018-12-25T10:54:35.926Z,11.10
2018-12-25T10:55:35.894Z,11.90
2018-12-25T10:56:35.865Z,11.00
2018-12-25T10:57:35.838Z,10.50
2018-12-25T10:58:35.804Z,12.40
2018-12-25T10:59:35.775Z,10.60
2018-12-25T11:00:35.745Z,12.70
2018-12-25T11:01:35.716Z,13.00
2018-12-25T11:02:35.686Z,10.00
2018-12-25T11:03:35.655Z,10.40
2018-12-25T11:04:35.625Z,12.40
2018-12-25T11:05:35.594Z,13.50
2018-12-25T11:06:35.566Z,14.10
2018-12-25T11:07:35.536Z,8.50
2018-12-25T11:08:35.504Z,13.30
2018-12-25T11:09:35.476Z,15.00
2018-12-25T11:10:35.448Z,12.30
2018-12-25T11:11:35.414Z,11.60
2018-12-25T11:12:35.385Z,10.70
2018-12-25T11:13:35.355Z,11.50
2018-12-25T11:14:35.325Z,12.80
2018-12-25T11:15:35.295Z,10.30
2018-12-25T11:16:35.265Z,10.70
2018-12-25T11:17:35.236Z,12.30
2018-12-25T11:18:35.210Z,12.80
2018-12-25T11:19:35.176Z,11.20
2018-12-25T11:20:35.147Z,10.40
2018-12-25T11:21:35.119Z,8.50
2018-12-25T11:22:35.091Z,10.60
2018-12-25T11:23:35.057Z,13.00
2018-12-25T11:24:35.028Z,13.60
2018-12-25T11:25:34.998Z,13.80
2018-12-25T11:26:34.971Z,14.50
2018-12-25T11:27:34.937Z,12.30
2018-12-25T11:28:34.909Z,11.20
2018-12-25T11:29:34.878Z,16.50
2018-12-25T11:30:34.847Z,11.20
2018-12-25T11:31:34.818Z,14.30
2018-12-25T11:32:34.791Z,18.10
2018-12-25T11:33:34.759Z,14.10
2018-12-25T11:34:34.730Z,14.80
2018-12-25T11:35:34.700Z,12.80
2018-12-25T11:36:34.670Z,11.90
2018-12-25T11:37:34.640Z,11.80
2018-12-25T11:38:34.609Z,16.80
2018-12-25T11:39:34.674Z,13.30
2018-12-25T11:40:34.555Z,15.80
2018-12-25T11:41:34.521Z,18.80
2018-12-25T11:42:34.490Z,15.60
2018-12-25T11:43:34.461Z,16.10
2018-12-25T11:44:34.428Z,13.60
2018-12-25T11:45:34.401Z,11.00
2018-12-25T11:46:34.371Z,16.80
2018-12-25T11:47:34.341Z,14.40
2018-12-25T11:48:34.311Z,15.30
2018-12-25T11:49:34.280Z,17.40
2018-12-25T11:50:34.250Z,14.70
2018-12-25T11:51:34.221Z,11.40
2018-12-25T11:52:34.191Z,17.40
2018-12-25T11:53:34.162Z,12.50
2018-12-25T11:54:34.132Z,12.80
2018-12-25T11:55:34.101Z,14.40
2018-12-25T11:56:34.072Z,17.90
2018-12-25T11:57:34.041Z,14.70
2018-12-25T11:58:34.011Z,13.10
2018-12-25T11:59:33.982Z,13.90
2018-12-25T12:00:33.951Z,14.70
2018-12-25T12:01:33.923Z,16.50
2018-12-25T12:02:33.893Z,12.50
2018-12-25T12:03:33.862Z,18.00
2018-12-25T12:04:33.833Z,14.90
2018-12-25T12:05:34.017Z,11.30
2018-12-25T12:06:33.989Z,15.40
2018-12-25T12:07:33.949Z,11.40
2018-12-25T12:08:33.916Z,12.50
2018-12-25T12:09:33.684Z,11.50
2018-12-25T12:10:33.654Z,17.80
2018-12-25T12:11:33.622Z,16.00
2018-12-25T12:12:33.594Z,20.50
2018-12-25T12:13:33.566Z,12.30
2018-12-25T12:14:33.533Z,12.20
2018-12-25T12:15:33.504Z,15.00
2018-12-25T12:16:33.480Z,17.30
2018-12-25T12:17:33.445Z,16.80
2018-12-25T12:18:33.421Z,14.40
2018-12-25T12:19:33.389Z,13.20
2018-12-25T12:20:33.356Z,14.50
2018-12-25T12:21:33.326Z,13.10
2018-12-25T12:22:37.040Z,12.30
2018-12-25T12:23:33.273Z,11.90
2018-12-25T12:24:33.236Z,12.90
2018-12-25T12:25:33.209Z,18.90
2018-12-25T12:26:33.179Z,12.10
2018-12-25T12:30:21.937Z,16.10
2018-12-25T12:31:21.705Z,12.90
2018-12-25T12:32:21.674Z,15.60
2018-12-25T12:33:21.646Z,15.00
2018-12-25T12:34:21.615Z,18.20
2018-12-25T12:35:21.592Z,13.00
2018-12-25T12:36:21.560Z,10.20
2018-12-25T12:37:21.525Z,14.90
2018-12-25T12:38:21.496Z,13.50
2018-12-25T12:39:21.466Z,11.90
2018-12-25T12:40:21.436Z,17.20
2018-12-25T12:41:21.407Z,17.50
2018-12-25T12:42:21.377Z,13.70
2018-12-25T12:43:21.346Z,17.30
2018-12-25T12:44:21.317Z,11.50
2018-12-25T12:45:21.286Z,15.10
2018-12-25T12:46:21.258Z,13.30
2018-12-25T12:47:21.227Z,14.40
2018-12-25T12:48:21.197Z,15.70
2018-12-25T12:49:21.170Z,13.70
2018-12-25T12:50:21.138Z,17.90
2018-12-25T12:51:21.108Z,21.20
2018-12-25T12:52:21.079Z,17.70
2018-12-25T12:53:21.047Z,18.10
2018-12-25T12:54:21.020Z,16.30
2018-12-25T12:55:20.989Z,14.70
2018-12-25T12:56:20.960Z,13.70
2018-12-25T12:57:20.929Z,14.70
2018-12-25T12:58:20.898Z,16.90
2018-12-25T12:59:20.867Z,17.40
2018-12-25T13:00:20.849Z,15.90
2018-12-25T13:01:20.811Z,15.10
2018-12-25T13:02:20.780Z,16.30
2018-12-25T13:03:20.749Z,13.60
2018-12-25T13:04:20.719Z,13.20
2018-12-25T13:05:20.694Z,16.10
2018-12-25T13:07:03.009Z,14.70
2018-12-25T13:08:02.777Z,15.60
2018-12-25T13:10:27.243Z,11.20
2018-12-25T13:11:27.011Z,11.90
2018-12-25T13:12:26.979Z,14.40
2018-12-25T13:13:26.952Z,12.80
2018-12-25T13:14:26.920Z,16.40